Zelienople, Pennsylvania
Current Conditions -  °F | °C
As of 7:15 PM on Wednesday 28 Jan 2015 (Local Time) from KBTP Reporting Station
Clear Clear  
Wind Chill:   Ceiling: Unl
Heat Index: 18°   Visibility: 10mi
Dew Point:   Wind: 6mph
Humidity: 53%   Direction: 180°S
Pressure: 30.31"   Gusts: NA
Location:  40.79°N, 80.14°W
Report Text: KBTP 290015Z AUTO 18005KT 10SM CLR M08/M16 A3031 RMK AO1
Loading
Personal Weather Stations






























Interactive Weather Map New forecast layout! Learn more

10-Day Weather Forecast

Advertisements
Track Severe Weather on mobile